createdAt,value
2018-12-31T00:01:11.206Z,29.07
2018-12-31T00:03:14.958Z,30.80
2018-12-31T00:05:18.618Z,26.87
2018-12-31T00:07:22.278Z,31.70
2018-12-31T00:09:26.117Z,29.73
2018-12-31T00:11:29.847Z,25.57
2018-12-31T00:13:33.546Z,30.30
2018-12-31T00:15:37.285Z,35.10
2018-12-31T00:17:41.053Z,31.67
2018-12-31T00:19:44.819Z,26.10
2018-12-31T00:21:48.608Z,32.20
2018-12-31T00:23:52.354Z,29.67
2018-12-31T00:25:56.070Z,30.47
2018-12-31T00:27:59.662Z,28.33
2018-12-31T00:30:03.476Z,24.67
2018-12-31T00:32:07.211Z,24.10
2018-12-31T00:34:10.879Z,30.23
2018-12-31T00:36:14.641Z,24.77
2018-12-31T00:38:18.458Z,27.17
2018-12-31T00:40:22.239Z,24.23
2018-12-31T00:42:25.960Z,27.53
2018-12-31T00:44:29.708Z,26.53
2018-12-31T00:46:33.426Z,22.87
2018-12-31T00:48:37.149Z,26.53
2018-12-31T00:50:41.052Z,24.20
2018-12-31T00:52:44.747Z,24.50
2018-12-31T00:54:48.586Z,26.10
2018-12-31T00:56:52.234Z,29.00
2018-12-31T00:58:55.878Z,32.07
2018-12-31T01:00:59.659Z,29.07
2018-12-31T01:03:03.378Z,26.87
2018-12-31T01:05:07.228Z,31.77
2018-12-31T01:07:10.824Z,30.70
2018-12-31T01:09:14.629Z,27.40
2018-12-31T01:11:18.588Z,29.20
2018-12-31T01:13:22.321Z,30.70
2018-12-31T01:15:26.088Z,34.07
2018-12-31T01:17:29.675Z,32.37
2018-12-31T01:19:33.479Z,31.03
2018-12-31T01:21:37.195Z,31.63
2018-12-31T01:23:40.930Z,32.70
2018-12-31T01:25:44.659Z,28.43
2018-12-31T01:27:48.419Z,27.00
2018-12-31T01:29:52.163Z,33.57
2018-12-31T01:31:55.902Z,28.63
2018-12-31T01:33:59.680Z,28.13
2018-12-31T01:36:03.464Z,32.60
2018-12-31T01:38:07.134Z,34.33
2018-12-31T01:40:10.825Z,32.70
2018-12-31T01:42:14.617Z,30.80
2018-12-31T01:44:18.273Z,29.63
2018-12-31T01:46:21.999Z,26.90
2018-12-31T01:48:25.732Z,30.70
2018-12-31T01:50:29.450Z,29.90
2018-12-31T01:52:33.140Z,30.33
2018-12-31T01:54:36.826Z,28.13
2018-12-31T01:56:40.475Z,34.10
2018-12-31T01:58:44.174Z,31.43
2018-12-31T02:00:47.872Z,31.17
2018-12-31T02:02:51.598Z,35.93
2018-12-31T02:04:55.290Z,32.40
2018-12-31T02:06:59.065Z,33.57
2018-12-31T02:09:04.329Z,35.37
2018-12-31T02:11:08.016Z,28.80
2018-12-31T02:13:11.806Z,40.50
2018-12-31T02:15:15.637Z,32.93
2018-12-31T02:17:19.395Z,36.67
2018-12-31T02:19:23.175Z,35.30
2018-12-31T02:21:26.903Z,31.03
2018-12-31T02:23:30.801Z,35.00
2018-12-31T02:25:34.506Z,35.73
2018-12-31T02:27:38.206Z,35.20
2018-12-31T02:29:41.949Z,38.67
2018-12-31T02:31:45.564Z,29.53
2018-12-31T02:33:49.327Z,34.67
2018-12-31T02:35:52.984Z,38.40
2018-12-31T02:37:56.831Z,47.20
2018-12-31T02:40:00.531Z,39.70
2018-12-31T02:42:04.291Z,43.87
2018-12-31T02:44:07.991Z,37.37
2018-12-31T02:46:11.758Z,35.03
2018-12-31T02:48:15.497Z,34.73
2018-12-31T02:50:19.142Z,33.47
2018-12-31T02:52:22.919Z,38.83
2018-12-31T02:54:26.535Z,37.37
2018-12-31T02:56:30.289Z,39.17
2018-12-31T02:58:34.040Z,29.03
2018-12-31T03:00:37.786Z,39.80
2018-12-31T03:02:41.493Z,36.70
2018-12-31T03:04:45.348Z,31.30
2018-12-31T03:06:49.023Z,35.37
2018-12-31T03:08:52.805Z,36.20
2018-12-31T03:10:56.659Z,35.83
2018-12-31T03:13:00.442Z,37.47
2018-12-31T03:15:04.786Z,39.50
2018-12-31T03:17:08.408Z,36.77
2018-12-31T03:19:12.099Z,29.70
2018-12-31T03:21:15.690Z,41.20
2018-12-31T03:23:19.398Z,34.93
2018-12-31T03:25:23.100Z,49.27
2018-12-31T03:27:26.751Z,45.23
2018-12-31T03:29:30.488Z,46.40
2018-12-31T03:31:34.192Z,35.77
2018-12-31T03:33:38.133Z,46.93
2018-12-31T03:35:41.784Z,38.03
2018-12-31T03:37:45.515Z,41.37
2018-12-31T03:39:49.213Z,41.63
2018-12-31T03:41:52.930Z,35.00
2018-12-31T03:43:56.765Z,49.57
2018-12-31T03:46:00.496Z,33.20
2018-12-31T03:48:04.218Z,44.27
2018-12-31T03:50:08.383Z,26.57
2018-12-31T03:52:12.105Z,31.77
2018-12-31T03:54:15.836Z,29.50
2018-12-31T03:56:19.504Z,37.07
2018-12-31T03:58:23.160Z,34.80
2018-12-31T04:00:26.870Z,27.40
2018-12-31T04:02:30.511Z,22.10
2018-12-31T04:04:34.239Z,26.73
2018-12-31T04:06:37.912Z,26.50
2018-12-31T04:08:41.579Z,24.70
2018-12-31T04:10:45.333Z,21.63
2018-12-31T04:12:49.040Z,26.80
2018-12-31T04:14:52.762Z,20.50
2018-12-31T04:16:56.514Z,22.50
2018-12-31T04:19:00.169Z,15.90
2018-12-31T04:21:03.892Z,17.43
2018-12-31T04:23:07.561Z,16.30
2018-12-31T04:25:11.259Z,21.60
2018-12-31T04:27:16.319Z,17.60
2018-12-31T04:29:20.025Z,19.77
2018-12-31T04:31:27.333Z,21.00
2018-12-31T04:33:31.013Z,18.33
2018-12-31T04:35:34.693Z,16.17
2018-12-31T04:37:38.422Z,20.37
2018-12-31T04:39:42.005Z,16.87
2018-12-31T04:41:45.889Z,17.87
2018-12-31T04:43:49.609Z,19.67
2018-12-31T04:45:53.442Z,21.00
2018-12-31T04:47:57.262Z,17.10
2018-12-31T04:50:00.915Z,17.50
2018-12-31T04:52:04.684Z,15.73
2018-12-31T04:54:09.589Z,19.47
2018-12-31T04:56:13.270Z,19.20
2018-12-31T04:58:22.956Z,20.03
2018-12-31T05:00:22.364Z,20.63
2018-12-31T05:02:26.064Z,20.53
2018-12-31T05:04:29.763Z,21.40
2018-12-31T05:06:33.460Z,19.77
2018-12-31T05:08:37.165Z,19.53
2018-12-31T05:10:40.731Z,23.17
2018-12-31T05:12:44.533Z,19.40
2018-12-31T05:14:48.206Z,20.70
2018-12-31T05:16:52.042Z,16.40
2018-12-31T05:18:55.670Z,21.97
2018-12-31T05:20:59.327Z,18.90
2018-12-31T05:23:03.106Z,22.47
2018-12-31T05:25:06.933Z,24.63
2018-12-31T05:27:10.702Z,20.33
2018-12-31T05:29:14.347Z,25.50
2018-12-31T05:31:18.125Z,25.07
2018-12-31T05:33:21.813Z,23.17
2018-12-31T05:35:25.476Z,20.80
2018-12-31T05:37:29.170Z,20.93
2018-12-31T05:39:32.979Z,22.97
2018-12-31T05:41:36.846Z,31.70
2018-12-31T05:43:40.604Z,29.20
2018-12-31T05:45:44.258Z,23.73
2018-12-31T05:47:49.042Z,30.40
2018-12-31T05:49:55.098Z,23.30
2018-12-31T05:51:58.811Z,29.43
2018-12-31T05:54:02.525Z,29.60
2018-12-31T05:56:06.216Z,28.70
2018-12-31T05:58:09.939Z,31.57
2018-12-31T06:00:13.645Z,26.90
2018-12-31T06:02:17.287Z,29.63
2018-12-31T06:04:21.001Z,31.17
2018-12-31T06:06:24.754Z,29.83
2018-12-31T06:08:28.445Z,30.60
2018-12-31T06:10:32.258Z,32.03
2018-12-31T06:12:36.053Z,37.00
2018-12-31T06:14:39.752Z,45.20
2018-12-31T06:16:43.457Z,39.00
2018-12-31T06:18:47.208Z,34.47
2018-12-31T06:20:50.892Z,35.47
2018-12-31T06:22:54.661Z,38.20
2018-12-31T06:24:58.417Z,51.70
2018-12-31T06:27:02.175Z,41.97
2018-12-31T06:29:05.901Z,34.70
2018-12-31T06:31:09.545Z,40.37
2018-12-31T06:33:13.250Z,36.30
2018-12-31T06:35:16.910Z,46.73
2018-12-31T06:37:20.533Z,35.83
2018-12-31T06:39:24.263Z,37.10
2018-12-31T06:41:27.989Z,47.30
2018-12-31T06:43:31.689Z,38.70
2018-12-31T06:45:35.359Z,37.27
2018-12-31T06:47:39.001Z,36.47
2018-12-31T06:49:42.678Z,40.67
2018-12-31T06:51:46.452Z,34.63
2018-12-31T06:53:50.297Z,34.47
2018-12-31T06:55:53.992Z,35.93
2018-12-31T06:57:57.655Z,39.20
2018-12-31T07:00:01.398Z,32.73
2018-12-31T07:02:05.236Z,27.90
2018-12-31T07:04:08.926Z,31.67
2018-12-31T07:06:12.673Z,33.13
2018-12-31T07:08:16.354Z,31.47
2018-12-31T07:10:20.181Z,25.77
2018-12-31T07:12:25.333Z,23.53
2018-12-31T07:14:29.143Z,29.73
2018-12-31T07:16:32.895Z,27.43
2018-12-31T07:18:36.576Z,24.20
2018-12-31T07:20:40.268Z,30.60
2018-12-31T07:22:44.025Z,29.23
2018-12-31T07:24:47.814Z,29.70
2018-12-31T07:26:51.484Z,31.00
2018-12-31T07:28:55.187Z,32.43
2018-12-31T07:30:59.106Z,36.57
2018-12-31T07:33:03.158Z,32.10
2018-12-31T07:35:06.943Z,26.40
2018-12-31T07:37:10.641Z,30.60
2018-12-31T07:39:14.292Z,31.70
2018-12-31T07:41:18.017Z,28.13
2018-12-31T07:43:21.668Z,31.13
2018-12-31T07:45:25.397Z,39.57
2018-12-31T07:47:29.215Z,33.23
2018-12-31T07:49:33.050Z,27.50
2018-12-31T07:51:36.756Z,29.60
2018-12-31T07:53:40.426Z,27.67
2018-12-31T07:55:44.278Z,29.00
2018-12-31T07:57:48.023Z,33.67
2018-12-31T07:59:51.756Z,31.80
2018-12-31T08:01:56.498Z,30.23
2018-12-31T08:04:00.267Z,35.70
2018-12-31T08:06:04.032Z,26.83
2018-12-31T08:08:07.859Z,30.93
2018-12-31T08:10:11.537Z,28.53
2018-12-31T08:12:16.098Z,37.93
2018-12-31T08:14:19.806Z,30.40
2018-12-31T08:16:23.520Z,32.90
2018-12-31T08:18:27.275Z,30.30
2018-12-31T08:20:31.050Z,29.70
2018-12-31T08:22:34.713Z,28.33
2018-12-31T08:24:38.854Z,33.07
2018-12-31T08:26:46.508Z,37.10
2018-12-31T08:28:50.971Z,30.50
2018-12-31T08:30:59.146Z,27.83
2018-12-31T08:33:06.794Z,33.37
2018-12-31T08:35:13.322Z,40.10
2018-12-31T08:37:20.019Z,42.00
2018-12-31T08:39:27.352Z,38.00
2018-12-31T08:41:32.502Z,42.90
2018-12-31T08:43:44.254Z,34.20
2018-12-31T08:45:47.907Z,29.90
2018-12-31T08:47:55.578Z,28.07
2018-12-31T08:50:02.913Z,29.60
2018-12-31T08:52:08.650Z,29.80
2018-12-31T08:54:14.274Z,32.10
2018-12-31T08:56:20.465Z,25.00
2018-12-31T08:58:24.572Z,30.23
2018-12-31T09:00:31.035Z,25.33
2018-12-31T09:02:33.977Z,28.37
2018-12-31T09:04:40.305Z,30.90
2018-12-31T09:06:44.153Z,29.93
2018-12-31T09:08:50.513Z,31.80
2018-12-31T09:10:54.350Z,33.10
2018-12-31T09:12:58.283Z,37.90
2018-12-31T09:15:02.057Z,37.10
2018-12-31T09:17:05.967Z,32.87
2018-12-31T09:19:09.709Z,30.57
2018-12-31T09:21:13.596Z,30.10
2018-12-31T09:23:18.586Z,38.90
2018-12-31T09:25:22.286Z,31.47
2018-12-31T09:27:26.046Z,29.40
2018-12-31T09:29:29.888Z,26.37
2018-12-31T09:31:33.824Z,33.43
2018-12-31T09:33:37.650Z,34.70
2018-12-31T09:35:41.520Z,50.07
2018-12-31T09:37:45.380Z,45.37
2018-12-31T09:39:49.213Z,32.90
2018-12-31T09:41:53.492Z,30.10
2018-12-31T09:43:57.525Z,33.07
2018-12-31T09:46:01.864Z,31.13
2018-12-31T09:48:05.691Z,28.23
2018-12-31T09:50:09.598Z,27.83
2018-12-31T09:52:13.316Z,25.80
2018-12-31T09:54:23.232Z,24.60
2018-12-31T09:56:28.799Z,29.80
2018-12-31T09:58:30.055Z,28.27
2018-12-31T10:00:33.884Z,27.10
2018-12-31T10:02:37.736Z,30.80
2018-12-31T10:04:41.483Z,38.00
2018-12-31T10:06:45.245Z,42.47
2018-12-31T10:08:49.579Z,28.20
2018-12-31T10:11:00.820Z,34.80
2018-12-31T10:13:01.998Z,31.67
2018-12-31T10:15:07.315Z,41.70
2018-12-31T10:17:11.088Z,35.67
2018-12-31T10:19:19.510Z,34.03
2018-12-31T10:21:23.374Z,51.93
2018-12-31T10:23:27.352Z,42.97
2018-12-31T10:25:31.544Z,41.17
2018-12-31T10:27:42.637Z,42.57
2018-12-31T10:29:46.602Z,51.03
2018-12-31T10:31:50.418Z,33.27
2018-12-31T10:33:54.310Z,32.30
2018-12-31T10:36:00.383Z,30.67
2018-12-31T10:38:04.312Z,22.40
2018-12-31T10:40:09.649Z,29.77
2018-12-31T10:42:15.026Z,25.20
2018-12-31T10:44:20.840Z,41.50
2018-12-31T10:46:24.790Z,56.00
2018-12-31T10:48:28.730Z,36.40
2018-12-31T10:50:38.691Z,28.07
2018-12-31T10:52:38.308Z,40.07
2018-12-31T10:54:42.391Z,29.47
2018-12-31T10:56:46.454Z,24.00
2018-12-31T10:58:53.280Z,29.40
2018-12-31T11:00:57.474Z,30.43
2018-12-31T11:03:01.834Z,28.67
2018-12-31T11:05:06.925Z,22.97
2018-12-31T11:07:10.832Z,21.97
2018-12-31T11:09:14.701Z,22.40
2018-12-31T11:11:18.533Z,27.20
2018-12-31T11:13:26.223Z,43.80
2018-12-31T11:15:29.511Z,29.80
2018-12-31T11:17:33.395Z,27.83
2018-12-31T11:19:37.115Z,24.00
2018-12-31T11:21:45.735Z,22.60
2018-12-31T11:23:49.534Z,23.97
2018-12-31T11:25:53.437Z,23.07
2018-12-31T11:27:57.280Z,21.37
2018-12-31T11:30:01.146Z,25.53
2018-12-31T11:32:04.961Z,26.40
2018-12-31T11:34:08.643Z,29.17
2018-12-31T11:36:15.835Z,29.07
2018-12-31T11:38:19.701Z,32.90
2018-12-31T11:40:23.473Z,29.67
2018-12-31T11:42:27.177Z,31.77
2018-12-31T11:44:31.076Z,26.30
2018-12-31T11:46:34.845Z,22.60
2018-12-31T11:48:38.609Z,36.00
2018-12-31T11:50:44.019Z,30.13
2018-12-31T11:52:47.833Z,20.87
2018-12-31T11:54:51.464Z,21.83
2018-12-31T11:56:55.311Z,21.90
2018-12-31T11:58:59.210Z,21.40
2018-12-31T12:01:03.170Z,19.70
2018-12-31T12:03:07.003Z,23.37
2018-12-31T12:05:10.823Z,20.20
2018-12-31T12:07:14.700Z,20.00
2018-12-31T12:09:18.496Z,25.37
2018-12-31T12:11:22.296Z,25.63
2018-12-31T12:13:29.339Z,36.13
2018-12-31T12:15:34.974Z,29.80
2018-12-31T12:17:38.956Z,25.23
2018-12-31T12:19:42.849Z,23.93
2018-12-31T12:21:46.956Z,22.20
2018-12-31T12:23:53.696Z,24.23
2018-12-31T12:25:57.582Z,22.03
2018-12-31T12:28:02.643Z,28.07
2018-12-31T12:30:08.291Z,26.70
2018-12-31T12:32:16.288Z,22.57
2018-12-31T12:34:17.332Z,23.67
2018-12-31T12:36:21.235Z,23.50
2018-12-31T12:38:26.252Z,19.70
2018-12-31T12:40:30.405Z,21.80
2018-12-31T12:42:34.341Z,24.43
2018-12-31T12:44:38.441Z,22.33
2018-12-31T12:46:42.357Z,27.73
2018-12-31T12:48:46.147Z,27.30
2018-12-31T12:50:50.271Z,25.43
2018-12-31T12:52:54.068Z,23.00
2018-12-31T12:54:57.815Z,23.57
2018-12-31T12:57:03.579Z,57.67
2018-12-31T12:59:07.492Z,27.33
2018-12-31T13:01:11.227Z,31.60
2018-12-31T13:03:15.153Z,31.53
2018-12-31T13:05:20.648Z,35.43
2018-12-31T13:07:24.598Z,32.03
2018-12-31T13:09:29.246Z,33.30
2018-12-31T13:11:32.974Z,32.40
2018-12-31T13:13:38.879Z,30.33
2018-12-31T13:15:42.355Z,36.20
2018-12-31T13:17:46.232Z,32.27
2018-12-31T13:19:50.017Z,26.43
2018-12-31T13:21:53.948Z,36.90
2018-12-31T13:23:58.071Z,30.90
2018-12-31T13:26:03.266Z,34.27
2018-12-31T13:28:08.678Z,37.93
2018-12-31T13:30:12.401Z,34.97
2018-12-31T13:32:16.165Z,36.90
2018-12-31T13:34:20.122Z,36.23
2018-12-31T13:36:25.158Z,37.03
2018-12-31T13:38:30.082Z,35.33
2018-12-31T13:40:34.415Z,34.33
2018-12-31T13:42:39.979Z,36.10
2018-12-31T13:44:44.099Z,35.73
2018-12-31T13:46:47.976Z,31.97
2018-12-31T13:48:51.775Z,34.90
2018-12-31T13:50:55.556Z,30.53
2018-12-31T13:52:59.672Z,38.90
2018-12-31T13:55:05.273Z,30.43
2018-12-31T13:57:09.159Z,27.90
2018-12-31T13:59:16.763Z,32.37
2018-12-31T14:01:20.344Z,30.43
2018-12-31T14:03:24.258Z,28.13
2018-12-31T14:05:31.202Z,37.03
2018-12-31T14:10:01.941Z,37.23
2018-12-31T14:12:05.185Z,39.37
2018-12-31T14:14:09.372Z,38.00
2018-12-31T14:16:13.517Z,34.53
2018-12-31T14:18:17.987Z,29.80
2018-12-31T14:20:22.189Z,32.67
2018-12-31T14:22:26.577Z,31.10
2018-12-31T14:24:30.712Z,29.23
2018-12-31T14:26:34.647Z,31.93
2018-12-31T14:28:38.558Z,33.97
2018-12-31T14:30:43.020Z,25.30
2018-12-31T14:32:49.434Z,30.00
2018-12-31T14:34:53.012Z,29.13
2018-12-31T14:36:56.819Z,30.27
2018-12-31T14:39:05.137Z,31.00
2018-12-31T14:41:11.202Z,28.07
2018-12-31T14:43:14.251Z,34.83
2018-12-31T14:45:18.604Z,27.90
2018-12-31T14:47:25.723Z,30.80
2018-12-31T14:49:30.102Z,28.30
2018-12-31T14:51:34.101Z,27.03
2018-12-31T14:53:37.911Z,25.43
2018-12-31T14:55:41.715Z,25.27
2018-12-31T14:57:45.726Z,27.37
2018-12-31T14:59:49.618Z,31.40
2018-12-31T15:01:53.496Z,36.43
2018-12-31T15:03:57.205Z,29.30
2018-12-31T15:06:02.549Z,30.13
2018-12-31T15:08:06.429Z,25.73
2018-12-31T15:10:15.054Z,24.67
2018-12-31T15:12:18.670Z,27.00
2018-12-31T15:14:22.399Z,29.30
2018-12-31T15:16:26.274Z,28.07
2018-12-31T15:18:30.135Z,24.73
2018-12-31T15:20:33.925Z,25.60
2018-12-31T15:22:37.977Z,27.27
2018-12-31T15:24:43.473Z,27.67
2018-12-31T15:26:47.286Z,27.33
2018-12-31T15:28:51.067Z,29.00
2018-12-31T15:30:55.001Z,27.70
2018-12-31T15:32:58.992Z,23.63
2018-12-31T15:35:03.092Z,21.47
2018-12-31T15:37:06.957Z,24.37
2018-12-31T15:39:11.031Z,27.83
2018-12-31T15:41:14.990Z,26.00
2018-12-31T15:43:18.808Z,22.70
2018-12-31T15:45:22.626Z,25.87
2018-12-31T15:47:28.382Z,28.03
2018-12-31T15:49:32.209Z,30.43
2018-12-31T15:51:37.556Z,29.13
2018-12-31T15:53:43.158Z,30.83
2018-12-31T15:55:50.492Z,26.20
2018-12-31T15:57:54.088Z,25.67
2018-12-31T15:59:57.927Z,22.67
2018-12-31T16:02:03.666Z,21.77
2018-12-31T16:04:07.441Z,20.43
2018-12-31T16:06:11.326Z,25.03
2018-12-31T16:08:15.490Z,22.47
2018-12-31T16:10:21.417Z,23.13
2018-12-31T16:12:25.467Z,22.13
2018-12-31T16:14:29.216Z,26.83
2018-12-31T16:16:35.151Z,22.60
2018-12-31T16:18:38.834Z,27.87
2018-12-31T16:20:42.688Z,30.30
2018-12-31T16:22:48.044Z,32.03
2018-12-31T16:24:51.994Z,29.57
2018-12-31T16:26:57.553Z,26.63
2018-12-31T16:29:01.197Z,21.53
2018-12-31T16:31:06.667Z,22.93
2018-12-31T16:33:11.015Z,26.20
2018-12-31T16:35:15.100Z,29.17
2018-12-31T16:37:18.959Z,25.60
2018-12-31T16:39:25.851Z,30.60
2018-12-31T16:41:32.287Z,41.33
2018-12-31T16:43:37.832Z,28.17
2018-12-31T16:45:42.556Z,29.70
2018-12-31T16:47:52.840Z,29.57
2018-12-31T16:50:01.552Z,30.67
2018-12-31T16:52:03.320Z,27.50
2018-12-31T16:54:09.083Z,27.53
2018-12-31T16:56:13.033Z,21.80
2018-12-31T16:58:27.352Z,31.00
2018-12-31T17:00:31.313Z,33.90
2018-12-31T17:02:36.506Z,43.57
2018-12-31T17:04:53.398Z,30.67
2018-12-31T17:07:04.362Z,24.73
2018-12-31T17:09:13.978Z,22.90
2018-12-31T17:11:13.076Z,30.97
2018-12-31T17:13:22.561Z,27.27
2018-12-31T17:15:35.397Z,25.83
2018-12-31T17:17:40.805Z,46.10
2018-12-31T17:19:47.650Z,43.70
2018-12-31T17:21:51.692Z,102.70
2018-12-31T17:23:55.610Z,115.43
2018-12-31T17:26:06.619Z,95.73
2018-12-31T17:28:21.421Z,91.40
2018-12-31T17:30:33.875Z,93.63
2018-12-31T17:32:43.803Z,77.33
2018-12-31T17:34:56.482Z,69.63
2018-12-31T17:37:01.627Z,70.10
2018-12-31T17:39:16.055Z,64.10
2018-12-31T17:41:29.361Z,73.77
2018-12-31T17:43:36.304Z,69.63
2018-12-31T17:45:52.202Z,61.70
2018-12-31T17:48:06.518Z,48.00
2018-12-31T17:50:15.227Z,51.05
2018-12-31T17:52:33.776Z,53.80
2018-12-31T17:54:51.325Z,50.17
2018-12-31T17:56:59.086Z,51.83
2018-12-31T17:59:03.899Z,45.80
2018-12-31T18:01:16.633Z,48.87
2018-12-31T18:03:27.920Z,51.00
2018-12-31T18:05:32.039Z,46.90
2018-12-31T18:07:37.447Z,41.43
2018-12-31T18:09:44.230Z,40.70
2018-12-31T18:11:48.142Z,32.27
2018-12-31T18:13:56.440Z,27.77
2018-12-31T18:16:04.262Z,29.20
2018-12-31T18:18:12.842Z,27.90
2018-12-31T18:20:27.608Z,35.33
2018-12-31T18:22:43.956Z,37.27
2018-12-31T18:24:43.317Z,34.30
2018-12-31T18:26:50.532Z,28.27
2018-12-31T18:28:57.866Z,29.10
2018-12-31T18:31:07.231Z,30.80
2018-12-31T18:33:11.141Z,37.17
2018-12-31T18:35:15.092Z,34.43
2018-12-31T18:37:24.033Z,36.80
2018-12-31T18:39:31.604Z,38.73
2018-12-31T18:41:37.940Z,35.07
2018-12-31T18:43:50.417Z,32.67
2018-12-31T18:45:58.632Z,28.60
2018-12-31T18:48:02.638Z,37.20
2018-12-31T18:50:15.174Z,37.83
2018-12-31T18:52:16.342Z,42.77
2018-12-31T18:54:20.347Z,33.27
2018-12-31T18:56:27.555Z,36.60
2018-12-31T18:58:32.006Z,34.43
2018-12-31T19:00:37.651Z,35.20
2018-12-31T19:02:44.439Z,34.23
2018-12-31T19:04:48.431Z,30.40
2018-12-31T19:06:54.142Z,29.97
2018-12-31T19:08:59.715Z,30.37
2018-12-31T19:11:10.583Z,32.10
2018-12-31T19:13:16.309Z,30.87
2018-12-31T19:15:26.001Z,25.47
2018-12-31T19:17:30.182Z,38.80
2018-12-31T19:19:37.340Z,60.17
2018-12-31T19:21:45.406Z,47.17
2018-12-31T19:23:59.672Z,48.50
2018-12-31T19:25:59.406Z,38.43
2018-12-31T19:28:06.820Z,41.43
2018-12-31T19:30:11.653Z,39.20
2018-12-31T19:32:27.247Z,48.57
2018-12-31T19:34:25.607Z,66.07
2018-12-31T19:36:32.570Z,45.53
2018-12-31T19:38:39.594Z,40.77
2018-12-31T19:40:47.795Z,55.10
2018-12-31T19:42:55.539Z,44.33
2018-12-31T19:45:03.661Z,42.77
2018-12-31T19:47:20.323Z,46.87
2018-12-31T19:49:25.773Z,41.77
2018-12-31T19:51:32.730Z,36.80
2018-12-31T19:53:39.850Z,38.73
2018-12-31T19:55:48.526Z,42.97
2018-12-31T19:58:08.403Z,38.97
2018-12-31T20:00:15.603Z,38.77
2018-12-31T20:02:25.445Z,44.90
2018-12-31T20:04:29.496Z,44.50
2018-12-31T20:06:34.794Z,46.93
2018-12-31T20:08:42.060Z,43.80
2018-12-31T20:10:50.287Z,42.90
2018-12-31T20:12:54.441Z,45.23
2018-12-31T20:14:59.920Z,42.40
2018-12-31T20:17:07.624Z,43.33
2018-12-31T20:19:13.171Z,53.13
2018-12-31T20:21:17.151Z,49.10
2018-12-31T20:23:27.661Z,41.20
2018-12-31T20:25:31.364Z,59.63
2018-12-31T20:27:35.474Z,40.23
2018-12-31T20:29:39.401Z,59.33
2018-12-31T20:31:49.586Z,42.50
2018-12-31T20:33:56.200Z,44.57
2018-12-31T20:36:06.168Z,46.13
2018-12-31T20:38:10.241Z,47.40
2018-12-31T20:40:18.561Z,48.37
2018-12-31T20:42:34.203Z,44.00
2018-12-31T20:44:37.661Z,46.23
2018-12-31T20:46:41.850Z,59.80
2018-12-31T20:48:47.926Z,66.40
2018-12-31T20:50:51.531Z,60.93
2018-12-31T20:52:55.566Z,58.97
2018-12-31T20:54:59.297Z,58.10
2018-12-31T20:57:03.092Z,66.37
2018-12-31T20:59:06.834Z,65.97
2018-12-31T21:01:10.517Z,62.83
2018-12-31T21:03:14.340Z,59.97
2018-12-31T21:05:18.115Z,56.63
2018-12-31T21:07:21.886Z,47.13
2018-12-31T21:09:25.539Z,43.93
2018-12-31T21:11:29.241Z,37.13
2018-12-31T21:13:32.880Z,38.03
2018-12-31T21:15:36.664Z,35.90
2018-12-31T21:17:40.309Z,37.30
2018-12-31T21:19:44.137Z,40.27
2018-12-31T21:21:48.005Z,36.83
2018-12-31T21:23:51.912Z,38.27
2018-12-31T21:25:56.037Z,42.97
2018-12-31T21:27:59.732Z,41.70
2018-12-31T21:30:04.132Z,43.67
2018-12-31T21:32:07.790Z,44.47
2018-12-31T21:34:11.563Z,39.97
2018-12-31T21:36:15.222Z,38.77
2018-12-31T21:38:18.975Z,91.73
2018-12-31T21:40:22.656Z,60.10
2018-12-31T21:42:28.078Z,50.03
2018-12-31T21:44:31.966Z,49.23
2018-12-31T21:46:35.677Z,53.93
2018-12-31T21:48:39.611Z,55.17
2018-12-31T21:50:43.403Z,54.00
2018-12-31T21:52:50.599Z,60.93
2018-12-31T21:54:54.499Z,56.47
2018-12-31T21:56:58.224Z,47.70
2018-12-31T21:59:01.984Z,52.33
2018-12-31T22:01:07.701Z,49.43
2018-12-31T22:03:12.873Z,46.63
2018-12-31T22:05:16.660Z,40.50
2018-12-31T22:07:20.397Z,49.83
2018-12-31T22:09:24.060Z,47.03
2018-12-31T22:11:27.818Z,50.27
2018-12-31T22:13:32.013Z,46.13
2018-12-31T22:15:36.849Z,64.27
2018-12-31T22:17:41.777Z,60.37
2018-12-31T22:19:46.037Z,61.03
2018-12-31T22:21:51.797Z,58.80
2018-12-31T22:23:55.524Z,58.53
2018-12-31T22:25:59.559Z,54.20
2018-12-31T22:28:03.198Z,52.10
2018-12-31T22:30:07.866Z,52.37
2018-12-31T22:32:11.582Z,46.17
2018-12-31T22:34:15.235Z,49.40
2018-12-31T22:36:20.682Z,46.00
2018-12-31T22:38:24.498Z,48.53
2018-12-31T22:40:30.117Z,49.80
2018-12-31T22:42:33.807Z,45.93
2018-12-31T22:44:37.568Z,46.77
2018-12-31T22:46:41.383Z,60.63
2018-12-31T22:48:45.060Z,73.90
2018-12-31T22:50:48.758Z,57.80
2018-12-31T22:52:52.500Z,53.97
2018-12-31T22:55:00.582Z,49.00
2018-12-31T22:57:01.752Z,52.70
2018-12-31T22:59:07.243Z,55.50
2018-12-31T23:01:11.049Z,52.97
2018-12-31T23:03:14.857Z,54.23
2018-12-31T23:05:18.638Z,57.20
2018-12-31T23:07:22.267Z,56.10
2018-12-31T23:09:26.026Z,188.53
2018-12-31T23:11:29.720Z,376.70
2018-12-31T23:13:33.923Z,289.73
2018-12-31T23:15:37.613Z,434.67
2018-12-31T23:17:41.925Z,349.83
2018-12-31T23:19:45.568Z,585.77
2018-12-31T23:21:49.398Z,439.97
2018-12-31T23:23:53.180Z,414.77
2018-12-31T23:25:58.131Z,525.00
2018-12-31T23:28:01.831Z,568.60
2018-12-31T23:30:08.983Z,558.83
2018-12-31T23:32:13.596Z,568.57
2018-12-31T23:34:18.125Z,562.13
2018-12-31T23:36:24.194Z,510.63
2018-12-31T23:38:29.103Z,461.53
2018-12-31T23:40:32.882Z,391.37
2018-12-31T23:42:36.834Z,199.93
2018-12-31T23:44:40.559Z,181.50
2018-12-31T23:46:44.517Z,136.23
2018-12-31T23:48:48.674Z,94.77
2018-12-31T23:50:52.849Z,213.60
2018-12-31T23:52:56.570Z,116.80
2018-12-31T23:55:00.189Z,88.40
2018-12-31T23:57:03.869Z,70.80
2018-12-31T23:59:09.199Z,76.87
